PWSweather.com
Personal Weather Stations
Station Observations
RAINWISE1
Rainwise Factory, Bar Harbor, ME 04609

Rainwise FactoryBar Harbor, ME 04609

Lat: 44.3897429696629, Lon: -68.2077813148499

Elevation: 29

Station Type: Rainwise MK-III

www.rainwise.com

High Low Average
Temperature 82.6°F28.1°C 49.8°F9.9°C 64.9°F18.3°C
Dew Point 65.4°F18.6°C 49.3°F9.6°C 56.0°F13.3°C
Winds 9.4 mph 15.1 kmh Calm Calm 2.0 mph WSW3.2 kmh WSW
Wind Gusts 13.8 mph22.2 kmh -- 3.0 mph4.8 kmh
Humidity 100% 40% 76%
Pressure 29.90 in1012.5 mb 29.80 in1009.1 mb -
Precipitation 0.00 in0.0 mm - -
Hour Temp Dew Point Humidity Winds Wind Gusts Pressure Precip Precip Rate Daily Precip Total
12:04 AM 55.5°F13.1°C 52.3°F11.3°C 89% 0.6 mph SSW1.0 kmh SSW 1.1 mph1.8 kmh 29.85 in1010.8 mb 0.00 in0.0 mm 0.00 in0.0 mm 0.00 in0.0 mm
12:09 AM 55.4°F13.0°C 52.5°F11.4°C 90% Calm Calm -- 29.86 in1011.2 mb 0.00 in0.0 mm 0.00 in0.0 mm 0.00 in0.0 mm
12:14 AM 55.4°F13.0°C 52.8°F11.6°C 91% Calm Calm -- 29.85 in1010.8 mb 0.00 in0.0 mm 0.00 in0.0 mm 0.00 in0.0 mm
12:19 AM 54.9°F12.7°C 52.6°F11.4°C 92% 1.8 mph NNW2.9 kmh NNW 2.1 mph3.4 kmh 29.85 in1010.8 mb 0.00 in0.0 mm 0.00 in0.0 mm 0.00 in0.0 mm
12:24 AM 54.2°F12.3°C 51.9°F11.1°C 92% 0.3 mph NNW0.5 kmh NNW 1.1 mph1.8 kmh 29.85 in1010.8 mb 0.00 in0.0 mm 0.00 in0.0 mm 0.00 in0.0 mm
12:29 AM 53.6°F12.0°C 51.3°F10.7°C 92% Calm Calm -- 29.85 in1010.8 mb 0.00 in0.0 mm 0.00 in0.0 mm 0.00 in0.0 mm
12:34 AM 53.1°F11.7°C 50.8°F10.4°C 92% Calm Calm -- 29.85 in1010.8 mb 0.00 in0.0 mm 0.00 in0.0 mm 0.00 in0.0 mm
12:39 AM 52.8°F11.6°C 50.8°F10.4°C 93% Calm Calm -- 29.85 in1010.8 mb 0.00 in0.0 mm 0.00 in0.0 mm 0.00 in0.0 mm
12:44 AM 52.8°F11.6°C 51.1°F10.6°C 94% 1.2 mph NNW1.9 kmh NNW 2.2 mph3.5 kmh 29.85 in1010.8 mb 0.00 in0.0 mm 0.00 in0.0 mm 0.00 in0.0 mm
12:49 AM 52.8°F11.6°C 51.1°F10.6°C 94% 1.8 mph NNW2.9 kmh NNW 2.6 mph4.2 kmh 29.85 in1010.8 mb 0.00 in0.0 mm 0.00 in0.0 mm 0.00 in0.0 mm
12:54 AM 52.7°F11.5°C 51.3°F10.7°C 95% 1.8 mph NNW2.9 kmh NNW 2.7 mph4.3 kmh 29.85 in1010.8 mb 0.00 in0.0 mm 0.00 in0.0 mm 0.00 in0.0 mm
12:59 AM 52.7°F11.5°C 51.3°F10.7°C 95% 2.2 mph NNW3.5 kmh NNW 2.7 mph4.3 kmh 29.84 in1010.5 mb 0.00 in0.0 mm 0.00 in0.0 mm 0.00 in0.0 mm
01:04 AM 52.7°F11.5°C 51.3°F10.7°C 95% 2.1 mph N3.4 kmh N 2.7 mph4.3 kmh 29.85 in1010.8 mb 0.00 in0.0 mm 0.00 in0.0 mm 0.00 in0.0 mm
01:09 AM 52.7°F11.5°C 51.3°F10.7°C 95% 1.2 mph N1.9 kmh N 1.3 mph2.1 kmh 29.84 in1010.5 mb 0.00 in0.0 mm 0.00 in0.0 mm 0.00 in0.0 mm
01:14 AM 52.7°F11.5°C 51.3°F10.7°C 95% 2.1 mph NNW3.4 kmh NNW 2.7 mph4.3 kmh 29.84 in1010.5 mb 0.00 in0.0 mm 0.00 in0.0 mm 0.00 in0.0 mm
01:19 AM 53.0°F11.7°C 51.3°F10.7°C 94% Calm Calm -- 29.84 in1010.5 mb 0.00 in0.0 mm 0.00 in0.0 mm 0.00 in0.0 mm
01:24 AM 53.1°F11.7°C 51.4°F10.8°C 94% 0.7 mph WSW1.1 kmh WSW 1.6 mph2.6 kmh 29.84 in1010.5 mb 0.00 in0.0 mm 0.00 in0.0 mm 0.00 in0.0 mm
01:29 AM 53.1°F11.7°C 51.4°F10.8°C 94% 1.1 mph S1.8 kmh S 1.8 mph2.9 kmh 29.85 in1010.8 mb 0.00 in0.0 mm 0.00 in0.0 mm 0.00 in0.0 mm
01:34 AM 53.1°F11.7°C 51.4°F10.8°C 94% 0.8 mph S1.3 kmh S 2.1 mph3.4 kmh 29.85 in1010.8 mb 0.00 in0.0 mm 0.00 in0.0 mm 0.00 in0.0 mm
01:39 AM 53.3°F11.8°C 51.6°F10.9°C 94% Calm Calm -- 29.85 in1010.8 mb 0.00 in0.0 mm 0.00 in0.0 mm 0.00 in0.0 mm
01:44 AM 53.5°F11.9°C 51.8°F11.0°C 94% Calm Calm -- 29.85 in1010.8 mb 0.00 in0.0 mm 0.00 in0.0 mm 0.00 in0.0 mm
01:49 AM 53.5°F11.9°C 52.1°F11.2°C 95% Calm Calm -- 29.85 in1010.8 mb 0.00 in0.0 mm 0.00 in0.0 mm 0.00 in0.0 mm
01:54 AM 53.2°F11.8°C 51.8°F11.0°C 95% Calm Calm -- 29.84 in1010.5 mb 0.00 in0.0 mm 0.00 in0.0 mm 0.00 in0.0 mm
01:59 AM 52.6°F11.4°C 50.9°F10.5°C 94% Calm Calm -- 29.85 in1010.8 mb 0.00 in0.0 mm 0.00 in0.0 mm 0.00 in0.0 mm
02:04 AM 52.1°F11.2°C 50.4°F10.2°C 94% Calm Calm -- 29.85 in1010.8 mb 0.00 in0.0 mm 0.00 in0.0 mm 0.00 in0.0 mm
02:09 AM 51.7°F10.9°C 50.0°F10.0°C 94% Calm Calm -- 29.85 in1010.8 mb 0.00 in0.0 mm 0.00 in0.0 mm 0.00 in0.0 mm
02:14 AM 51.6°F10.9°C 50.2°F10.1°C 95% Calm Calm -- 29.85 in1010.8 mb 0.00 in0.0 mm 0.00 in0.0 mm 0.00 in0.0 mm
02:19 AM 51.3°F10.7°C 49.9°F9.9°C 95% Calm Calm -- 29.85 in1010.8 mb 0.00 in0.0 mm 0.00 in0.0 mm 0.00 in0.0 mm
02:24 AM 51.3°F10.7°C 50.2°F10.1°C 96% Calm Calm -- 29.85 in1010.8 mb 0.00 in0.0 mm 0.00 in0.0 mm 0.00 in0.0 mm
02:29 AM 51.6°F10.9°C 50.5°F10.3°C 96% Calm Calm -- 29.85 in1010.8 mb 0.00 in0.0 mm 0.00 in0.0 mm 0.00 in0.0 mm
02:34 AM 51.7°F10.9°C 50.9°F10.5°C 97% 0.1 mph WNW0.2 kmh WNW 2.2 mph3.5 kmh 29.85 in1010.8 mb 0.00 in0.0 mm 0.00 in0.0 mm 0.00 in0.0 mm
02:39 AM 51.9°F11.1°C 50.8°F10.4°C 96% 0.5 mph E0.8 kmh E 1.8 mph2.9 kmh 29.85 in1010.8 mb 0.00 in0.0 mm 0.00 in0.0 mm 0.00 in0.0 mm
02:44 AM 52.2°F11.2°C 51.4°F10.8°C 97% 0.1 mph NNE0.2 kmh NNE 1.1 mph1.8 kmh 29.85 in1010.8 mb 0.00 in0.0 mm 0.00 in0.0 mm 0.00 in0.0 mm
02:49 AM 51.8°F11.0°C 51.0°F10.6°C 97% 0.4 mph NNW0.6 kmh NNW 1.1 mph1.8 kmh 29.85 in1010.8 mb 0.00 in0.0 mm 0.00 in0.0 mm 0.00 in0.0 mm
02:54 AM 51.5°F10.8°C 50.4°F10.2°C 96% Calm Calm -- 29.85 in1010.8 mb 0.00 in0.0 mm 0.00 in0.0 mm 0.00 in0.0 mm
02:59 AM 51.2°F10.7°C 50.4°F10.2°C 97% Calm Calm -- 29.85 in1010.8 mb 0.00 in0.0 mm 0.00 in0.0 mm 0.00 in0.0 mm
03:04 AM 51.1°F10.6°C 50.3°F10.2°C 97% Calm Calm -- 29.85 in1010.8 mb 0.00 in0.0 mm 0.00 in0.0 mm 0.00 in0.0 mm
03:09 AM 51.1°F10.6°C 50.3°F10.2°C 97% 1.2 mph NNW1.9 kmh NNW 1.8 mph2.9 kmh 29.85 in1010.8 mb 0.00 in0.0 mm 0.00 in0.0 mm 0.00 in0.0 mm
03:14 AM 50.9°F10.5°C 50.1°F10.1°C 97% Calm Calm -- 29.85 in1010.8 mb 0.00 in0.0 mm 0.00 in0.0 mm 0.00 in0.0 mm
03:19 AM 50.7°F10.4°C 49.9°F9.9°C 97% Calm Calm -- 29.86 in1011.2 mb 0.00 in0.0 mm 0.00 in0.0 mm 0.00 in0.0 mm
03:24 AM 50.7°F10.4°C 49.9°F9.9°C 97% Calm Calm -- 29.86 in1011.2 mb 0.00 in0.0 mm 0.00 in0.0 mm 0.00 in0.0 mm
03:29 AM 50.9°F10.5°C 50.1°F10.1°C 97% 0.1 mph NNW0.2 kmh NNW 1.3 mph2.1 kmh 29.86 in1011.2 mb 0.00 in0.0 mm 0.00 in0.0 mm 0.00 in0.0 mm
03:34 AM 51.0°F10.6°C 50.5°F10.3°C 98% 0.6 mph NNW1.0 kmh NNW 1.8 mph2.9 kmh 29.86 in1011.2 mb 0.00 in0.0 mm 0.00 in0.0 mm 0.00 in0.0 mm
03:39 AM 50.8°F10.4°C 50.3°F10.2°C 98% Calm Calm -- 29.86 in1011.2 mb 0.00 in0.0 mm 0.00 in0.0 mm 0.00 in0.0 mm
03:44 AM 50.5°F10.3°C 50.0°F10.0°C 98% Calm Calm -- 29.86 in1011.2 mb 0.00 in0.0 mm 0.00 in0.0 mm 0.00 in0.0 mm
03:49 AM 50.2°F10.1°C 49.7°F9.8°C 98% Calm Calm -- 29.86 in1011.2 mb 0.00 in0.0 mm 0.00 in0.0 mm 0.00 in0.0 mm
03:54 AM 50.2°F10.1°C 49.7°F9.8°C 98% Calm Calm -- 29.86 in1011.2 mb 0.00 in0.0 mm 0.00 in0.0 mm 0.00 in0.0 mm
03:59 AM 50.1°F10.1°C 49.6°F9.8°C 98% Calm Calm -- 29.86 in1011.2 mb 0.00 in0.0 mm 0.00 in0.0 mm 0.00 in0.0 mm
04:04 AM 50.1°F10.1°C 49.6°F9.8°C 98% Calm Calm -- 29.86 in1011.2 mb 0.00 in0.0 mm 0.00 in0.0 mm 0.00 in0.0 mm
04:09 AM 50.3°F10.2°C 49.5°F9.7°C 97% 0.8 mph NNW1.3 kmh NNW 1.3 mph2.1 kmh 29.86 in1011.2 mb 0.00 in0.0 mm 0.00 in0.0 mm 0.00 in0.0 mm
04:14 AM 50.5°F10.3°C 49.7°F9.8°C 97% 1.6 mph NNW2.6 kmh NNW 2.2 mph3.5 kmh 29.86 in1011.2 mb 0.00 in0.0 mm 0.00 in0.0 mm 0.00 in0.0 mm
04:19 AM 50.2°F10.1°C 49.7°F9.8°C 98% Calm Calm -- 29.86 in1011.2 mb 0.00 in0.0 mm 0.00 in0.0 mm 0.00 in0.0 mm
04:24 AM 50.1°F10.1°C 49.6°F9.8°C 98% Calm Calm -- 29.87 in1011.5 mb 0.00 in0.0 mm 0.00 in0.0 mm 0.00 in0.0 mm
04:29 AM 50.1°F10.1°C 49.3°F9.6°C 97% Calm Calm -- 29.87 in1011.5 mb 0.00 in0.0 mm 0.00 in0.0 mm 0.00 in0.0 mm
04:34 AM 50.5°F10.3°C 50.0°F10.0°C 98% Calm Calm -- 29.87 in1011.5 mb 0.00 in0.0 mm 0.00 in0.0 mm 0.00 in0.0 mm
04:39 AM 51.0°F10.6°C 50.7°F10.4°C 99% Calm Calm -- 29.87 in1011.5 mb 0.00 in0.0 mm 0.00 in0.0 mm 0.00 in0.0 mm
04:44 AM 50.8°F10.4°C 50.5°F10.3°C 99% Calm Calm -- 29.87 in1011.5 mb 0.00 in0.0 mm 0.00 in0.0 mm 0.00 in0.0 mm
04:49 AM 50.5°F10.3°C 50.2°F10.1°C 99% 0.8 mph NW1.3 kmh NW 1.6 mph2.6 kmh 29.87 in1011.5 mb 0.00 in0.0 mm 0.00 in0.0 mm 0.00 in0.0 mm
04:54 AM 50.2°F10.1°C 49.9°F9.9°C 99% 0.5 mph NW0.8 kmh NW 1.3 mph2.1 kmh 29.87 in1011.5 mb 0.00 in0.0 mm 0.00 in0.0 mm 0.00 in0.0 mm
04:59 AM 50.1°F10.1°C 49.6°F9.8°C 98% 1.0 mph NNW1.6 kmh NNW 1.3 mph2.1 kmh 29.87 in1011.5 mb 0.00 in0.0 mm 0.00 in0.0 mm 0.00 in0.0 mm
05:04 AM 49.9°F9.9°C 49.4°F9.7°C 98% Calm Calm -- 29.88 in1011.9 mb 0.00 in0.0 mm 0.00 in0.0 mm 0.00 in0.0 mm
05:09 AM 49.8°F9.9°C 49.3°F9.6°C 98% 0.5 mph NNW0.8 kmh NNW 1.3 mph2.1 kmh 29.88 in1011.9 mb 0.00 in0.0 mm 0.00 in0.0 mm 0.00 in0.0 mm
05:14 AM 49.8°F9.9°C 49.5°F9.7°C 99% Calm Calm -- 29.88 in1011.9 mb 0.00 in0.0 mm 0.00 in0.0 mm 0.00 in0.0 mm
05:19 AM 49.8°F9.9°C 49.5°F9.7°C 99% 0.7 mph NNW1.1 kmh NNW 2.6 mph4.2 kmh 29.88 in1011.9 mb 0.00 in0.0 mm 0.00 in0.0 mm 0.00 in0.0 mm
05:24 AM 50.0°F10.0°C 49.5°F9.7°C 98% Calm Calm -- 29.88 in1011.9 mb 0.00 in0.0 mm 0.00 in0.0 mm 0.00 in0.0 mm
05:29 AM 50.1°F10.1°C 49.8°F9.9°C 99% Calm Calm -- 29.88 in1011.9 mb 0.00 in0.0 mm 0.00 in0.0 mm 0.00 in0.0 mm
05:34 AM 50.1°F10.1°C 49.8°F9.9°C 99% 1.5 mph NNW2.4 kmh NNW 1.8 mph2.9 kmh 29.88 in1011.9 mb 0.00 in0.0 mm 0.00 in0.0 mm 0.00 in0.0 mm
05:39 AM 50.0°F10.0°C 49.5°F9.7°C 98% Calm Calm 1.1 mph1.8 kmh 29.88 in1011.9 mb 0.00 in0.0 mm 0.00 in0.0 mm 0.00 in0.0 mm
05:44 AM 50.1°F10.1°C 49.8°F9.9°C 99% Calm Calm -- 29.89 in1012.2 mb 0.00 in0.0 mm 0.00 in0.0 mm 0.00 in0.0 mm
05:49 AM 50.2°F10.1°C 49.9°F9.9°C 99% Calm Calm -- 29.89 in1012.2 mb 0.00 in0.0 mm 0.00 in0.0 mm 0.00 in0.0 mm
05:54 AM 50.5°F10.3°C 50.2°F10.1°C 99% Calm Calm -- 29.89 in1012.2 mb 0.00 in0.0 mm 0.00 in0.0 mm 0.00 in0.0 mm
05:59 AM 51.0°F10.6°C 50.5°F10.3°C 98% Calm Calm -- 29.89 in1012.2 mb 0.00 in0.0 mm 0.00 in0.0 mm 0.00 in0.0 mm
06:04 AM 51.7°F10.9°C 51.4°F10.8°C 99% Calm Calm -- 29.89 in1012.2 mb 0.00 in0.0 mm 0.00 in0.0 mm 0.00 in0.0 mm
06:09 AM 52.7°F11.5°C 52.7°F11.5°C 100% Calm Calm -- 29.90 in1012.5 mb 0.00 in0.0 mm 0.00 in0.0 mm 0.00 in0.0 mm
06:14 AM 53.6°F12.0°C 53.6°F12.0°C 100% Calm Calm -- 29.90 in1012.5 mb 0.00 in0.0 mm 0.00 in0.0 mm 0.00 in0.0 mm
06:19 AM 54.5°F12.5°C 54.5°F12.5°C 100% Calm Calm -- 29.90 in1012.5 mb 0.00 in0.0 mm 0.00 in0.0 mm 0.00 in0.0 mm
06:24 AM 55.4°F13.0°C 55.1°F12.8°C 99% Calm Calm -- 29.90 in1012.5 mb 0.00 in0.0 mm 0.00 in0.0 mm 0.00 in0.0 mm
06:29 AM 56.6°F13.7°C 56.3°F13.5°C 99% Calm Calm -- 29.90 in1012.5 mb 0.00 in0.0 mm 0.00 in0.0 mm 0.00 in0.0 mm
06:34 AM 57.7°F14.3°C 57.4°F14.1°C 99% Calm Calm -- 29.89 in1012.2 mb 0.00 in0.0 mm 0.00 in0.0 mm 0.00 in0.0 mm
06:39 AM 58.7°F14.8°C 58.4°F14.7°C 99% Calm Calm -- 29.89 in1012.2 mb 0.00 in0.0 mm 0.00 in0.0 mm 0.00 in0.0 mm
06:44 AM 59.2°F15.1°C 58.6°F14.8°C 98% Calm Calm -- 29.89 in1012.2 mb 0.00 in0.0 mm 0.00 in0.0 mm 0.00 in0.0 mm
06:49 AM 59.5°F15.3°C 58.9°F14.9°C 98% Calm Calm -- 29.89 in1012.2 mb 0.00 in0.0 mm 0.00 in0.0 mm 0.00 in0.0 mm
06:54 AM 60.0°F15.6°C 59.4°F15.2°C 98% Calm Calm -- 29.89 in1012.2 mb 0.00 in0.0 mm 0.00 in0.0 mm 0.00 in0.0 mm
06:59 AM 60.5°F15.8°C 59.1°F15.1°C 95% Calm Calm -- 29.89 in1012.2 mb 0.00 in0.0 mm 0.00 in0.0 mm 0.00 in0.0 mm
07:04 AM 61.1°F16.2°C 59.1°F15.1°C 93% Calm Calm 1.1 mph1.8 kmh 29.90 in1012.5 mb 0.00 in0.0 mm 0.00 in0.0 mm 0.00 in0.0 mm
07:09 AM 61.5°F16.4°C 59.5°F15.3°C 93% Calm Calm -- 29.89 in1012.2 mb 0.00 in0.0 mm 0.00 in0.0 mm 0.00 in0.0 mm
07:14 AM 62.0°F16.7°C 59.6°F15.3°C 92% 0.8 mph SSW1.3 kmh SSW 1.8 mph2.9 kmh 29.89 in1012.2 mb 0.00 in0.0 mm 0.00 in0.0 mm 0.00 in0.0 mm
07:19 AM 62.9°F17.2°C 60.5°F15.8°C 92% Calm Calm -- 29.90 in1012.5 mb 0.00 in0.0 mm 0.00 in0.0 mm 0.00 in0.0 mm
07:24 AM 63.8°F17.7°C 61.4°F16.3°C 92% 2.2 mph SSW3.5 kmh SSW 2.6 mph4.2 kmh 29.90 in1012.5 mb 0.00 in0.0 mm 0.00 in0.0 mm 0.00 in0.0 mm
07:29 AM 64.6°F18.1°C 62.2°F16.8°C 92% 1.6 mph S2.6 kmh S 1.8 mph2.9 kmh 29.89 in1012.2 mb 0.00 in0.0 mm 0.00 in0.0 mm 0.00 in0.0 mm
07:34 AM 65.2°F18.4°C 62.8°F17.1°C 92% 1.3 mph S2.1 kmh S 1.8 mph2.9 kmh 29.89 in1012.2 mb 0.00 in0.0 mm 0.00 in0.0 mm 0.00 in0.0 mm
07:39 AM 66.1°F18.9°C 63.1°F17.3°C 90% 2.5 mph SSE4.0 kmh SSE 3.2 mph5.1 kmh 29.89 in1012.2 mb 0.00 in0.0 mm 0.00 in0.0 mm 0.00 in0.0 mm
07:44 AM 66.9°F19.4°C 63.5°F17.5°C 89% 1.8 mph SSE2.9 kmh SSE 2.6 mph4.2 kmh 29.89 in1012.2 mb 0.00 in0.0 mm 0.00 in0.0 mm 0.00 in0.0 mm
07:49 AM 67.6°F19.8°C 63.6°F17.6°C 87% 1.1 mph SSE1.8 kmh SSE 2.2 mph3.5 kmh 29.89 in1012.2 mb 0.00 in0.0 mm 0.00 in0.0 mm 0.00 in0.0 mm
07:54 AM 68.3°F20.2°C 64.6°F18.1°C 88% 0.5 mph ESE0.8 kmh ESE 2.2 mph3.5 kmh 29.90 in1012.5 mb 0.00 in0.0 mm 0.00 in0.0 mm 0.00 in0.0 mm
07:59 AM 69.1°F20.6°C 65.4°F18.6°C 88% 2.2 mph NNE3.5 kmh NNE 2.7 mph4.3 kmh 29.90 in1012.5 mb 0.00 in0.0 mm 0.00 in0.0 mm 0.00 in0.0 mm
08:04 AM 69.5°F20.8°C 64.4°F18.0°C 84% 0.1 mph ENE0.2 kmh ENE 1.1 mph1.8 kmh 29.90 in1012.5 mb 0.00 in0.0 mm 0.00 in0.0 mm 0.00 in0.0 mm
08:09 AM 69.8°F21.0°C 63.3°F17.4°C 80% 0.5 mph ENE0.8 kmh ENE 1.8 mph2.9 kmh 29.90 in1012.5 mb 0.00 in0.0 mm 0.00 in0.0 mm 0.00 in0.0 mm
08:14 AM 70.4°F21.3°C 62.5°F16.9°C 76% 1.5 mph NNW2.4 kmh NNW 2.2 mph3.5 kmh 29.90 in1012.5 mb 0.00 in0.0 mm 0.00 in0.0 mm 0.00 in0.0 mm
08:19 AM 71.3°F21.8°C 61.8°F16.6°C 72% 2.3 mph NNW3.7 kmh NNW 5.0 mph8.0 kmh 29.90 in1012.5 mb 0.00 in0.0 mm 0.00 in0.0 mm 0.00 in0.0 mm
08:24 AM 72.1°F22.3°C 61.4°F16.3°C 69% 2.6 mph NNW4.2 kmh NNW 3.7 mph6.0 kmh 29.90 in1012.5 mb 0.00 in0.0 mm 0.00 in0.0 mm 0.00 in0.0 mm
08:29 AM 72.5°F22.5°C 60.9°F16.1°C 67% 2.3 mph NNW3.7 kmh NNW 4.2 mph6.8 kmh 29.90 in1012.5 mb 0.00 in0.0 mm 0.00 in0.0 mm 0.00 in0.0 mm
08:34 AM 72.9°F22.7°C 60.4°F15.8°C 65% 3.3 mph N5.3 kmh N 4.2 mph6.8 kmh 29.89 in1012.2 mb 0.00 in0.0 mm 0.00 in0.0 mm 0.00 in0.0 mm
08:39 AM 73.0°F22.8°C 60.5°F15.8°C 65% 2.7 mph N4.3 kmh N 3.2 mph5.1 kmh 29.90 in1012.5 mb 0.00 in0.0 mm 0.00 in0.0 mm 0.00 in0.0 mm
08:44 AM 73.2°F22.9°C 60.3°F15.7°C 64% 3.6 mph NNW5.8 kmh NNW 5.7 mph9.2 kmh 29.90 in1012.5 mb 0.00 in0.0 mm 0.00 in0.0 mm 0.00 in0.0 mm
08:49 AM 73.9°F23.3°C 60.5°F15.8°C 63% 1.4 mph NNW2.3 kmh NNW 3.7 mph6.0 kmh 29.90 in1012.5 mb 0.00 in0.0 mm 0.00 in0.0 mm 0.00 in0.0 mm
08:54 AM 74.2°F23.4°C 60.8°F16.0°C 63% 3.3 mph NNW5.3 kmh NNW 6.5 mph10.5 kmh 29.89 in1012.2 mb 0.00 in0.0 mm 0.00 in0.0 mm 0.00 in0.0 mm
08:59 AM 74.5°F23.6°C 60.6°F15.9°C 62% 3.8 mph NNW6.1 kmh NNW 6.2 mph10.0 kmh 29.89 in1012.2 mb 0.00 in0.0 mm 0.00 in0.0 mm 0.00 in0.0 mm
09:04 AM 74.5°F23.6°C 60.2°F15.7°C 61% 3.1 mph NNW5.0 kmh NNW 4.7 mph7.6 kmh 29.89 in1012.2 mb 0.00 in0.0 mm 0.00 in0.0 mm 0.00 in0.0 mm
09:09 AM 74.4°F23.6°C 59.6°F15.3°C 60% 3.3 mph NNE5.3 kmh NNE 5.4 mph8.7 kmh 29.89 in1012.2 mb 0.00 in0.0 mm 0.00 in0.0 mm 0.00 in0.0 mm
09:14 AM 74.5°F23.6°C 59.7°F15.4°C 60% 1.5 mph NW2.4 kmh NW 4.2 mph6.8 kmh 29.89 in1012.2 mb 0.00 in0.0 mm 0.00 in0.0 mm 0.00 in0.0 mm
09:19 AM 74.7°F23.7°C 59.4°F15.2°C 59% 3.9 mph NNW6.3 kmh NNW 7.7 mph12.4 kmh 29.89 in1012.2 mb 0.00 in0.0 mm 0.00 in0.0 mm 0.00 in0.0 mm
09:24 AM 74.7°F23.7°C 58.9°F14.9°C 58% 2.6 mph NE4.2 kmh NE 7.0 mph11.3 kmh 29.89 in1012.2 mb 0.00 in0.0 mm 0.00 in0.0 mm 0.00 in0.0 mm
09:29 AM 74.7°F23.7°C 58.9°F14.9°C 58% 0.3 mph WNW0.5 kmh WNW 1.3 mph2.1 kmh 29.89 in1012.2 mb 0.00 in0.0 mm 0.00 in0.0 mm 0.00 in0.0 mm
09:34 AM 75.2°F24.0°C 59.9°F15.5°C 59% 0.3 mph NNW0.5 kmh NNW 1.6 mph2.6 kmh 29.89 in1012.2 mb 0.00 in0.0 mm 0.00 in0.0 mm 0.00 in0.0 mm
09:39 AM 75.8°F24.3°C 61.4°F16.3°C 61% 1.0 mph N1.6 kmh N 2.7 mph4.3 kmh 29.89 in1012.2 mb 0.00 in0.0 mm 0.00 in0.0 mm 0.00 in0.0 mm
09:44 AM 76.4°F24.7°C 62.4°F16.9°C 62% 1.8 mph NW2.9 kmh NW 5.7 mph9.2 kmh 29.89 in1012.2 mb 0.00 in0.0 mm 0.00 in0.0 mm 0.00 in0.0 mm
09:49 AM 76.8°F24.9°C 62.3°F16.8°C 61% Calm Calm -- 29.88 in1011.9 mb 0.00 in0.0 mm 0.00 in0.0 mm 0.00 in0.0 mm
09:54 AM 77.0°F25.0°C 62.0°F16.7°C 60% 0.2 mph SSW0.3 kmh SSW 1.8 mph2.9 kmh 29.88 in1011.9 mb 0.00 in0.0 mm 0.00 in0.0 mm 0.00 in0.0 mm
09:59 AM 77.0°F25.0°C 62.0°F16.7°C 60% 4.4 mph N7.1 kmh N 6.5 mph10.5 kmh 29.88 in1011.9 mb 0.00 in0.0 mm 0.00 in0.0 mm 0.00 in0.0 mm
10:04 AM 77.1°F25.1°C 60.2°F15.7°C 56% 5.1 mph N8.2 kmh N 7.7 mph12.4 kmh 29.88 in1011.9 mb 0.00 in0.0 mm 0.00 in0.0 mm 0.00 in0.0 mm
10:09 AM 76.7°F24.8°C 58.8°F14.9°C 54% Calm Calm -- 29.88 in1011.9 mb 0.00 in0.0 mm 0.00 in0.0 mm 0.00 in0.0 mm
10:14 AM 76.8°F24.9°C 58.9°F14.9°C 54% 3.4 mph NW5.5 kmh NW 5.7 mph9.2 kmh 29.88 in1011.9 mb 0.00 in0.0 mm 0.00 in0.0 mm 0.00 in0.0 mm
10:19 AM 77.4°F25.2°C 59.4°F15.2°C 54% 1.4 mph NW2.3 kmh NW 3.7 mph6.0 kmh 29.88 in1011.9 mb 0.00 in0.0 mm 0.00 in0.0 mm 0.00 in0.0 mm
10:24 AM 77.7°F25.4°C 59.2°F15.1°C 53% 2.2 mph NW3.5 kmh NW 3.7 mph6.0 kmh 29.88 in1011.9 mb 0.00 in0.0 mm 0.00 in0.0 mm 0.00 in0.0 mm
10:29 AM 77.8°F25.4°C 58.2°F14.6°C 51% 2.0 mph W3.2 kmh W 3.2 mph5.1 kmh 29.88 in1011.9 mb 0.00 in0.0 mm 0.00 in0.0 mm 0.00 in0.0 mm
10:34 AM 78.2°F25.7°C 59.1°F15.1°C 52% 1.7 mph NNW2.7 kmh NNW 4.7 mph7.6 kmh 29.88 in1011.9 mb 0.00 in0.0 mm 0.00 in0.0 mm 0.00 in0.0 mm
10:39 AM 78.5°F25.8°C 58.3°F14.6°C 50% 1.8 mph WSW2.9 kmh WSW 5.7 mph9.2 kmh 29.87 in1011.5 mb 0.00 in0.0 mm 0.00 in0.0 mm 0.00 in0.0 mm
10:44 AM 78.6°F25.9°C 58.4°F14.7°C 50% 1.2 mph NW1.9 kmh NW 2.2 mph3.5 kmh 29.87 in1011.5 mb 0.00 in0.0 mm 0.00 in0.0 mm 0.00 in0.0 mm
10:49 AM 78.7°F25.9°C 58.5°F14.7°C 50% 0.7 mph WNW1.1 kmh WNW 3.0 mph4.8 kmh 29.87 in1011.5 mb 0.00 in0.0 mm 0.00 in0.0 mm 0.00 in0.0 mm
10:54 AM 78.7°F25.9°C 58.5°F14.7°C 50% 1.1 mph NW1.8 kmh NW 4.4 mph7.1 kmh 29.87 in1011.5 mb 0.00 in0.0 mm 0.00 in0.0 mm 0.00 in0.0 mm
10:59 AM 79.0°F26.1°C 58.8°F14.9°C 50% 1.3 mph NW2.1 kmh NW 3.0 mph4.8 kmh 29.87 in1011.5 mb 0.00 in0.0 mm 0.00 in0.0 mm 0.00 in0.0 mm
11:04 AM 79.1°F26.2°C 57.7°F14.3°C 48% Calm Calm -- 29.87 in1011.5 mb 0.00 in0.0 mm 0.00 in0.0 mm 0.00 in0.0 mm
11:09 AM 79.5°F26.4°C 58.6°F14.8°C 49% 2.1 mph WNW3.4 kmh WNW 5.5 mph8.9 kmh 29.87 in1011.5 mb 0.00 in0.0 mm 0.00 in0.0 mm 0.00 in0.0 mm
11:14 AM 80.0°F26.7°C 57.9°F14.4°C 47% 1.4 mph NNW2.3 kmh NNW 3.7 mph6.0 kmh 29.87 in1011.5 mb 0.00 in0.0 mm 0.00 in0.0 mm 0.00 in0.0 mm
11:19 AM 80.3°F26.8°C 57.6°F14.2°C 46% 1.1 mph W1.8 kmh W 3.0 mph4.8 kmh 29.87 in1011.5 mb 0.00 in0.0 mm 0.00 in0.0 mm 0.00 in0.0 mm
11:24 AM 80.5°F26.9°C 57.2°F14.0°C 45% 0.7 mph WNW1.1 kmh WNW 2.6 mph4.2 kmh 29.86 in1011.2 mb 0.00 in0.0 mm 0.00 in0.0 mm 0.00 in0.0 mm
11:29 AM 80.2°F26.8°C 56.9°F13.8°C 45% 0.6 mph NW1.0 kmh NW 1.6 mph2.6 kmh 29.86 in1011.2 mb 0.00 in0.0 mm 0.00 in0.0 mm 0.00 in0.0 mm
11:34 AM 80.0°F26.7°C 56.7°F13.7°C 45% 3.9 mph SW6.3 kmh SW 5.5 mph8.9 kmh 29.86 in1011.2 mb 0.00 in0.0 mm 0.00 in0.0 mm 0.00 in0.0 mm
11:39 AM 79.9°F26.6°C 57.8°F14.3°C 47% 1.7 mph SW2.7 kmh SW 3.0 mph4.8 kmh 29.86 in1011.2 mb 0.00 in0.0 mm 0.00 in0.0 mm 0.00 in0.0 mm
11:44 AM 79.9°F26.6°C 57.8°F14.3°C 47% 2.1 mph WSW3.4 kmh WSW 6.2 mph10.0 kmh 29.86 in1011.2 mb 0.00 in0.0 mm 0.00 in0.0 mm 0.00 in0.0 mm
11:49 AM 80.0°F26.7°C 57.9°F14.4°C 47% 1.6 mph WNW2.6 kmh WNW 2.2 mph3.5 kmh 29.86 in1011.2 mb 0.00 in0.0 mm 0.00 in0.0 mm 0.00 in0.0 mm
11:54 AM 80.2°F26.8°C 57.5°F14.2°C 46% 2.1 mph WSW3.4 kmh WSW 6.2 mph10.0 kmh 29.86 in1011.2 mb 0.00 in0.0 mm 0.00 in0.0 mm 0.00 in0.0 mm
11:59 AM 80.5°F26.9°C 58.4°F14.7°C 47% 0.7 mph NW1.1 kmh NW 2.1 mph3.4 kmh 29.86 in1011.2 mb 0.00 in0.0 mm 0.00 in0.0 mm 0.00 in0.0 mm
12:04 PM 80.4°F26.9°C 57.7°F14.3°C 46% 4.0 mph NW6.4 kmh NW 7.2 mph11.6 kmh 29.86 in1011.2 mb 0.00 in0.0 mm 0.00 in0.0 mm 0.00 in0.0 mm
12:09 PM 80.5°F26.9°C 57.8°F14.3°C 46% 0.2 mph NW0.3 kmh NW 2.1 mph3.4 kmh 29.86 in1011.2 mb 0.00 in0.0 mm 0.00 in0.0 mm 0.00 in0.0 mm
12:14 PM 81.2°F27.3°C 58.4°F14.7°C 46% 2.0 mph NW3.2 kmh NW 4.4 mph7.1 kmh 29.85 in1010.8 mb 0.00 in0.0 mm 0.00 in0.0 mm 0.00 in0.0 mm
12:19 PM 81.5°F27.5°C 58.1°F14.5°C 45% 1.6 mph W2.6 kmh W 4.2 mph6.8 kmh 29.85 in1010.8 mb 0.00 in0.0 mm 0.00 in0.0 mm 0.00 in0.0 mm
12:24 PM 81.5°F27.5°C 58.1°F14.5°C 45% 0.5 mph W0.8 kmh W 1.6 mph2.6 kmh 29.85 in1010.8 mb 0.00 in0.0 mm 0.00 in0.0 mm 0.00 in0.0 mm
12:29 PM 81.4°F27.4°C 58.0°F14.4°C 45% 3.6 mph SW5.8 kmh SW 4.9 mph7.9 kmh 29.85 in1010.8 mb 0.00 in0.0 mm 0.00 in0.0 mm 0.00 in0.0 mm
12:34 PM 80.8°F27.1°C 56.2°F13.4°C 43% 6.5 mph SW10.5 kmh SW 11.1 mph17.9 kmh 29.85 in1010.8 mb 0.00 in0.0 mm 0.00 in0.0 mm 0.00 in0.0 mm
12:39 PM 80.3°F26.8°C 55.1°F12.8°C 42% 0.7 mph WSW1.1 kmh WSW 2.7 mph4.3 kmh 29.85 in1010.8 mb 0.00 in0.0 mm 0.00 in0.0 mm 0.00 in0.0 mm
12:44 PM 80.6°F27.0°C 56.6°F13.7°C 44% 5.7 mph SW9.2 kmh SW 9.3 mph15.0 kmh 29.85 in1010.8 mb 0.00 in0.0 mm 0.00 in0.0 mm 0.00 in0.0 mm
12:49 PM 80.7°F27.1°C 56.7°F13.7°C 44% 4.4 mph WSW7.1 kmh WSW 6.5 mph10.5 kmh 29.84 in1010.5 mb 0.00 in0.0 mm 0.00 in0.0 mm 0.00 in0.0 mm
12:54 PM 80.5°F26.9°C 55.3°F12.9°C 42% 5.1 mph SW8.2 kmh SW 7.0 mph11.3 kmh 29.84 in1010.5 mb 0.00 in0.0 mm 0.00 in0.0 mm 0.00 in0.0 mm
12:59 PM 80.6°F27.0°C 55.4°F13.0°C 42% 2.8 mph WSW4.5 kmh WSW 5.0 mph8.0 kmh 29.84 in1010.5 mb 0.00 in0.0 mm 0.00 in0.0 mm 0.00 in0.0 mm
01:04 PM 81.0°F27.2°C 56.4°F13.6°C 43% 1.0 mph WSW1.6 kmh WSW 2.6 mph4.2 kmh 29.84 in1010.5 mb 0.00 in0.0 mm 0.00 in0.0 mm 0.00 in0.0 mm
01:09 PM 81.5°F27.5°C 57.5°F14.2°C 44% 2.8 mph WSW4.5 kmh WSW 4.9 mph7.9 kmh 29.84 in1010.5 mb 0.00 in0.0 mm 0.00 in0.0 mm 0.00 in0.0 mm
01:14 PM 81.6°F27.6°C 56.9°F13.8°C 43% 2.6 mph WSW4.2 kmh WSW 6.5 mph10.5 kmh 29.84 in1010.5 mb 0.00 in0.0 mm 0.00 in0.0 mm 0.00 in0.0 mm
01:19 PM 81.7°F27.6°C 56.3°F13.5°C 42% 3.4 mph W5.5 kmh W 6.5 mph10.5 kmh 29.84 in1010.5 mb 0.00 in0.0 mm 0.00 in0.0 mm 0.00 in0.0 mm
01:24 PM 81.9°F27.7°C 57.2°F14.0°C 43% 1.8 mph NW2.9 kmh NW 2.7 mph4.3 kmh 29.83 in1010.2 mb 0.00 in0.0 mm 0.00 in0.0 mm 0.00 in0.0 mm
01:29 PM 82.0°F27.8°C 56.6°F13.7°C 42% 1.6 mph NW2.6 kmh NW 4.0 mph6.4 kmh 29.83 in1010.2 mb 0.00 in0.0 mm 0.00 in0.0 mm 0.00 in0.0 mm
01:34 PM 82.3°F27.9°C 57.5°F14.2°C 43% 1.6 mph WNW2.6 kmh WNW 2.7 mph4.3 kmh 29.82 in1009.8 mb 0.00 in0.0 mm 0.00 in0.0 mm 0.00 in0.0 mm
01:39 PM 82.5°F28.1°C 57.1°F13.9°C 42% 1.2 mph W1.9 kmh W 2.7 mph4.3 kmh 29.81 in1009.5 mb 0.00 in0.0 mm 0.00 in0.0 mm 0.00 in0.0 mm
01:44 PM 82.4°F28.0°C 55.6°F13.1°C 40% 5.4 mph NNW8.7 kmh NNW 6.0 mph9.7 kmh 29.80 in1009.1 mb 0.00 in0.0 mm 0.00 in0.0 mm 0.00 in0.0 mm
01:49 PM 82.4°F28.0°C 56.3°F13.5°C 41% 3.7 mph SW6.0 kmh SW 7.0 mph11.3 kmh 29.83 in1010.2 mb 0.00 in0.0 mm 0.00 in0.0 mm 0.00 in0.0 mm
01:54 PM 82.6°F28.1°C 57.2°F14.0°C 42% 2.3 mph SW3.7 kmh SW 7.9 mph12.7 kmh 29.83 in1010.2 mb 0.00 in0.0 mm 0.00 in0.0 mm 0.00 in0.0 mm
01:59 PM 82.2°F27.9°C 57.4°F14.1°C 43% 3.4 mph WSW5.5 kmh WSW 5.7 mph9.2 kmh 29.83 in1010.2 mb 0.00 in0.0 mm 0.00 in0.0 mm 0.00 in0.0 mm
02:04 PM 81.7°F27.6°C 57.6°F14.2°C 44% 6.6 mph SW10.6 kmh SW 10.5 mph16.9 kmh 29.83 in1010.2 mb 0.00 in0.0 mm 0.00 in0.0 mm 0.00 in0.0 mm
02:09 PM 81.1°F27.3°C 57.7°F14.3°C 45% 7.9 mph SSW12.7 kmh SSW 13.8 mph22.2 kmh 29.83 in1010.2 mb 0.00 in0.0 mm 0.00 in0.0 mm 0.00 in0.0 mm
02:14 PM 80.1°F26.7°C 58.0°F14.4°C 47% 8.3 mph SW13.4 kmh SW 11.4 mph18.3 kmh 29.83 in1010.2 mb 0.00 in0.0 mm 0.00 in0.0 mm 0.00 in0.0 mm
02:19 PM 79.3°F26.3°C 58.5°F14.7°C 49% 6.5 mph SW10.5 kmh SW 8.9 mph14.3 kmh 29.83 in1010.2 mb 0.00 in0.0 mm 0.00 in0.0 mm 0.00 in0.0 mm
02:24 PM 78.8°F26.0°C 58.6°F14.8°C 50% 9.4 mph SSW15.1 kmh SSW 12.8 mph20.6 kmh 29.83 in1010.2 mb 0.00 in0.0 mm 0.00 in0.0 mm 0.00 in0.0 mm
02:29 PM 78.1°F25.6°C 58.5°F14.7°C 51% 5.7 mph SW9.2 kmh SW 7.5 mph12.1 kmh 29.83 in1010.2 mb 0.00 in0.0 mm 0.00 in0.0 mm 0.00 in0.0 mm
02:34 PM 77.3°F25.2°C 58.8°F14.9°C 53% 7.2 mph SSW11.6 kmh SSW 11.6 mph18.7 kmh 29.83 in1010.2 mb 0.00 in0.0 mm 0.00 in0.0 mm 0.00 in0.0 mm
02:39 PM 76.7°F24.8°C 58.8°F14.9°C 54% 7.2 mph SW11.6 kmh SW 8.5 mph13.7 kmh 29.83 in1010.2 mb 0.00 in0.0 mm 0.00 in0.0 mm 0.00 in0.0 mm
02:44 PM 76.1°F24.5°C 59.2°F15.1°C 56% 5.0 mph SW8.0 kmh SW 7.9 mph12.7 kmh 29.83 in1010.2 mb 0.00 in0.0 mm 0.00 in0.0 mm 0.00 in0.0 mm
02:49 PM 75.7°F24.3°C 59.4°F15.2°C 57% 8.1 mph SW13.0 kmh SW 11.6 mph18.7 kmh 29.83 in1010.2 mb 0.00 in0.0 mm 0.00 in0.0 mm 0.00 in0.0 mm
02:54 PM 75.4°F24.1°C 58.6°F14.8°C 56% 9.2 mph SSW14.8 kmh SSW 11.6 mph18.7 kmh 29.83 in1010.2 mb 0.00 in0.0 mm 0.00 in0.0 mm 0.00 in0.0 mm
02:59 PM 75.2°F24.0°C 57.9°F14.4°C 55% 8.0 mph SW12.9 kmh SW 11.4 mph18.3 kmh 29.83 in1010.2 mb 0.00 in0.0 mm 0.00 in0.0 mm 0.00 in0.0 mm
03:04 PM 75.0°F23.9°C 57.7°F14.3°C 55% 7.2 mph SW11.6 kmh SW 9.5 mph15.3 kmh 29.83 in1010.2 mb 0.00 in0.0 mm 0.00 in0.0 mm 0.00 in0.0 mm
03:09 PM 74.9°F23.8°C 57.6°F14.2°C 55% 9.0 mph SW14.5 kmh SW 13.3 mph21.4 kmh 29.83 in1010.2 mb 0.00 in0.0 mm 0.00 in0.0 mm 0.00 in0.0 mm
03:14 PM 74.7°F23.7°C 57.4°F14.1°C 55% 7.6 mph SW12.2 kmh SW 11.1 mph17.9 kmh 29.83 in1010.2 mb 0.00 in0.0 mm 0.00 in0.0 mm 0.00 in0.0 mm
03:19 PM 74.7°F23.7°C 57.4°F14.1°C 55% 7.4 mph SSW11.9 kmh SSW 10.3 mph16.6 kmh 29.83 in1010.2 mb 0.00 in0.0 mm 0.00 in0.0 mm 0.00 in0.0 mm
03:24 PM 74.9°F23.8°C 57.6°F14.2°C 55% 7.8 mph SW12.6 kmh SW 10.0 mph16.1 kmh 29.83 in1010.2 mb 0.00 in0.0 mm 0.00 in0.0 mm 0.00 in0.0 mm
03:29 PM 74.9°F23.8°C 58.1°F14.5°C 56% 4.8 mph SW7.7 kmh SW 6.5 mph10.5 kmh 29.83 in1010.2 mb 0.00 in0.0 mm 0.00 in0.0 mm 0.00 in0.0 mm
03:34 PM 74.7°F23.7°C 57.4°F14.1°C 55% 8.0 mph SSW12.9 kmh SSW 11.4 mph18.3 kmh 29.83 in1010.2 mb 0.00 in0.0 mm 0.00 in0.0 mm 0.00 in0.0 mm
03:39 PM 74.6°F23.7°C 58.3°F14.6°C 57% 7.1 mph SSW11.4 kmh SSW 9.8 mph15.8 kmh 29.83 in1010.2 mb 0.00 in0.0 mm 0.00 in0.0 mm 0.00 in0.0 mm
03:44 PM 74.4°F23.6°C 57.7°F14.3°C 56% 7.5 mph SW12.1 kmh SW 9.8 mph15.8 kmh 29.83 in1010.2 mb 0.00 in0.0 mm 0.00 in0.0 mm 0.00 in0.0 mm
03:49 PM 74.4°F23.6°C 58.2°F14.6°C 57% 7.6 mph SW12.2 kmh SW 11.9 mph19.2 kmh 29.83 in1010.2 mb 0.00 in0.0 mm 0.00 in0.0 mm 0.00 in0.0 mm
03:54 PM 74.0°F23.3°C 57.8°F14.3°C 57% 5.6 mph SW9.0 kmh SW 7.9 mph12.7 kmh 29.83 in1010.2 mb 0.00 in0.0 mm 0.00 in0.0 mm 0.00 in0.0 mm
03:59 PM 73.7°F23.2°C 58.0°F14.4°C 58% 5.4 mph SW8.7 kmh SW 8.5 mph13.7 kmh 29.83 in1010.2 mb 0.00 in0.0 mm 0.00 in0.0 mm 0.00 in0.0 mm
04:04 PM 73.5°F23.1°C 58.3°F14.6°C 59% 5.7 mph SW9.2 kmh SW 7.5 mph12.1 kmh 29.83 in1010.2 mb 0.00 in0.0 mm 0.00 in0.0 mm 0.00 in0.0 mm
04:09 PM 73.4°F23.0°C 58.7°F14.8°C 60% 4.3 mph WSW6.9 kmh WSW 7.5 mph12.1 kmh 29.83 in1010.2 mb 0.00 in0.0 mm 0.00 in0.0 mm 0.00 in0.0 mm
04:14 PM 73.2°F22.9°C 58.5°F14.7°C 60% 4.0 mph SW6.4 kmh SW 6.2 mph10.0 kmh 29.83 in1010.2 mb 0.00 in0.0 mm 0.00 in0.0 mm 0.00 in0.0 mm
04:18 PM 73.2°F22.9°C 58.5°F14.7°C 60% 4.7 mph SW7.6 kmh SW 6.0 mph9.7 kmh 29.84 in1010.5 mb 0.00 in0.0 mm 0.00 in0.0 mm 0.00 in0.0 mm
04:23 PM 73.0°F22.8°C 58.3°F14.6°C 60% 4.9 mph SW7.9 kmh SW 8.5 mph13.7 kmh 29.84 in1010.5 mb 0.00 in0.0 mm 0.00 in0.0 mm 0.00 in0.0 mm
04:28 PM 72.7°F22.6°C 58.5°F14.7°C 61% 3.2 mph SW5.1 kmh SW 5.4 mph8.7 kmh 29.84 in1010.5 mb 0.00 in0.0 mm 0.00 in0.0 mm 0.00 in0.0 mm
04:33 PM 72.5°F22.5°C 58.3°F14.6°C 61% 4.5 mph SW7.2 kmh SW 6.7 mph10.8 kmh 29.84 in1010.5 mb 0.00 in0.0 mm 0.00 in0.0 mm 0.00 in0.0 mm
04:38 PM 72.5°F22.5°C 58.7°F14.8°C 62% 5.1 mph SSW8.2 kmh SSW 8.4 mph13.5 kmh 29.84 in1010.5 mb 0.00 in0.0 mm 0.00 in0.0 mm 0.00 in0.0 mm
04:43 PM 72.4°F22.4°C 59.1°F15.1°C 63% 3.8 mph SW6.1 kmh SW 5.5 mph8.9 kmh 29.84 in1010.5 mb 0.00 in0.0 mm 0.00 in0.0 mm 0.00 in0.0 mm
04:48 PM 72.1°F22.3°C 58.8°F14.9°C 63% 3.2 mph SW5.1 kmh SW 4.2 mph6.8 kmh 29.84 in1010.5 mb 0.00 in0.0 mm 0.00 in0.0 mm 0.00 in0.0 mm
04:53 PM 71.7°F22.1°C 58.4°F14.7°C 63% 1.8 mph SW2.9 kmh SW 3.7 mph6.0 kmh 29.84 in1010.5 mb 0.00 in0.0 mm 0.00 in0.0 mm 0.00 in0.0 mm
04:58 PM 71.5°F21.9°C 58.7°F14.8°C 64% 3.0 mph SSW4.8 kmh SSW 4.2 mph6.8 kmh 29.85 in1010.8 mb 0.00 in0.0 mm 0.00 in0.0 mm 0.00 in0.0 mm
05:03 PM 71.1°F21.7°C 58.7°F14.8°C 65% 2.9 mph SSW4.7 kmh SSW 3.7 mph6.0 kmh 29.84 in1010.5 mb 0.00 in0.0 mm 0.00 in0.0 mm 0.00 in0.0 mm
05:08 PM 70.7°F21.5°C 58.8°F14.9°C 66% 2.4 mph SSW3.9 kmh SSW 3.5 mph5.6 kmh 29.84 in1010.5 mb 0.00 in0.0 mm 0.00 in0.0 mm 0.00 in0.0 mm
05:13 PM 70.3°F21.3°C 58.8°F14.9°C 67% 3.1 mph SSW5.0 kmh SSW 4.0 mph6.4 kmh 29.84 in1010.5 mb 0.00 in0.0 mm 0.00 in0.0 mm 0.00 in0.0 mm
05:18 PM 69.7°F20.9°C 58.2°F14.6°C 67% 2.3 mph SSW3.7 kmh SSW 2.7 mph4.3 kmh 29.84 in1010.5 mb 0.00 in0.0 mm 0.00 in0.0 mm 0.00 in0.0 mm
05:23 PM 69.0°F20.6°C 58.4°F14.7°C 69% 0.9 mph SSW1.4 kmh SSW 1.8 mph2.9 kmh 29.84 in1010.5 mb 0.00 in0.0 mm 0.00 in0.0 mm 0.00 in0.0 mm
05:28 PM 68.3°F20.2°C 57.7°F14.3°C 69% 0.7 mph SSW1.1 kmh SSW 1.6 mph2.6 kmh 29.84 in1010.5 mb 0.00 in0.0 mm 0.00 in0.0 mm 0.00 in0.0 mm
05:33 PM 67.8°F19.9°C 58.0°F14.4°C 71% 1.0 mph SSW1.6 kmh SSW 1.3 mph2.1 kmh 29.85 in1010.8 mb 0.00 in0.0 mm 0.00 in0.0 mm 0.00 in0.0 mm
05:38 PM 67.4°F19.7°C 58.1°F14.5°C 72% 1.1 mph SSW1.8 kmh SSW 2.2 mph3.5 kmh 29.84 in1010.5 mb 0.00 in0.0 mm 0.00 in0.0 mm 0.00 in0.0 mm
05:43 PM 67.2°F19.6°C 58.2°F14.6°C 73% 1.7 mph SSW2.7 kmh SSW 2.6 mph4.2 kmh 29.84 in1010.5 mb 0.00 in0.0 mm 0.00 in0.0 mm 0.00 in0.0 mm
05:48 PM 67.0°F19.4°C 58.1°F14.5°C 73% 1.3 mph SW2.1 kmh SW 2.1 mph3.4 kmh 29.84 in1010.5 mb 0.00 in0.0 mm 0.00 in0.0 mm 0.00 in0.0 mm
05:53 PM 66.9°F19.4°C 58.0°F14.4°C 73% 2.0 mph SSW3.2 kmh SSW 2.7 mph4.3 kmh 29.84 in1010.5 mb 0.00 in0.0 mm 0.00 in0.0 mm 0.00 in0.0 mm
05:58 PM 66.6°F19.2°C 57.7°F14.3°C 73% 2.8 mph SSW4.5 kmh SSW 4.0 mph6.4 kmh 29.85 in1010.8 mb 0.00 in0.0 mm 0.00 in0.0 mm 0.00 in0.0 mm
06:03 PM 66.3°F19.1°C 57.8°F14.3°C 74% 2.0 mph SW3.2 kmh SW 3.0 mph4.8 kmh 29.85 in1010.8 mb 0.00 in0.0 mm 0.00 in0.0 mm 0.00 in0.0 mm
06:08 PM 66.0°F18.9°C 57.5°F14.2°C 74% 3.0 mph SW4.8 kmh SW 4.2 mph6.8 kmh 29.85 in1010.8 mb 0.00 in0.0 mm 0.00 in0.0 mm 0.00 in0.0 mm
06:13 PM 65.9°F18.8°C 57.4°F14.1°C 74% 1.4 mph SW2.3 kmh SW 2.6 mph4.2 kmh 29.85 in1010.8 mb 0.00 in0.0 mm 0.00 in0.0 mm 0.00 in0.0 mm
06:18 PM 65.7°F18.7°C 57.6°F14.2°C 75% Calm Calm -- 29.85 in1010.8 mb 0.00 in0.0 mm 0.00 in0.0 mm 0.00 in0.0 mm
06:23 PM 65.5°F18.6°C 57.4°F14.1°C 75% Calm Calm -- 29.86 in1011.2 mb 0.00 in0.0 mm 0.00 in0.0 mm 0.00 in0.0 mm
06:28 PM 65.3°F18.5°C 57.2°F14.0°C 75% Calm Calm -- 29.86 in1011.2 mb 0.00 in0.0 mm 0.00 in0.0 mm 0.00 in0.0 mm
06:33 PM 65.0°F18.3°C 56.9°F13.8°C 75% Calm Calm -- 29.86 in1011.2 mb 0.00 in0.0 mm 0.00 in0.0 mm 0.00 in0.0 mm
06:38 PM 64.8°F18.2°C 57.1°F13.9°C 76% Calm Calm -- 29.86 in1011.2 mb 0.00 in0.0 mm 0.00 in0.0 mm 0.00 in0.0 mm
06:43 PM 64.5°F18.1°C 56.8°F13.8°C 76% Calm Calm -- 29.86 in1011.2 mb 0.00 in0.0 mm 0.00 in0.0 mm 0.00 in0.0 mm
06:48 PM 64.0°F17.8°C 56.3°F13.5°C 76% Calm Calm -- 29.87 in1011.5 mb 0.00 in0.0 mm 0.00 in0.0 mm 0.00 in0.0 mm
06:53 PM 63.5°F17.5°C 56.5°F13.6°C 78% Calm Calm -- 29.86 in1011.2 mb 0.00 in0.0 mm 0.00 in0.0 mm 0.00 in0.0 mm
06:58 PM 62.9°F17.2°C 56.3°F13.5°C 79% Calm Calm -- 29.86 in1011.2 mb 0.00 in0.0 mm 0.00 in0.0 mm 0.00 in0.0 mm
07:03 PM 62.1°F16.7°C 55.9°F13.3°C 80% Calm Calm -- 29.86 in1011.2 mb 0.00 in0.0 mm 0.00 in0.0 mm 0.00 in0.0 mm
07:07 PM 61.6°F16.4°C 55.7°F13.2°C 81% Calm Calm -- 29.86 in1011.2 mb 0.00 in0.0 mm 0.00 in0.0 mm 0.00 in0.0 mm
07:13 PM 60.9°F16.1°C 55.7°F13.2°C 83% Calm Calm -- 29.87 in1011.5 mb 0.00 in0.0 mm 0.00 in0.0 mm 0.00 in0.0 mm
07:18 PM 60.5°F15.8°C 56.0°F13.3°C 85% Calm Calm -- 29.87 in1011.5 mb 0.00 in0.0 mm 0.00 in0.0 mm 0.00 in0.0 mm
07:23 PM 60.2°F15.7°C 56.3°F13.5°C 87% Calm Calm -- 29.87 in1011.5 mb 0.00 in0.0 mm 0.00 in0.0 mm 0.00 in0.0 mm
07:28 PM 60.0°F15.6°C 56.1°F13.4°C 87% Calm Calm -- 29.87 in1011.5 mb 0.00 in0.0 mm 0.00 in0.0 mm 0.00 in0.0 mm
07:33 PM 59.7°F15.4°C 56.1°F13.4°C 88% Calm Calm -- 29.87 in1011.5 mb 0.00 in0.0 mm 0.00 in0.0 mm 0.00 in0.0 mm
07:37 PM 59.5°F15.3°C 56.3°F13.5°C 89% Calm Calm -- 29.87 in1011.5 mb 0.00 in0.0 mm 0.00 in0.0 mm 0.00 in0.0 mm
07:42 PM 59.3°F15.2°C 56.4°F13.6°C 90% Calm Calm -- 29.87 in1011.5 mb 0.00 in0.0 mm 0.00 in0.0 mm 0.00 in0.0 mm
07:47 PM 59.2°F15.1°C 56.3°F13.5°C 90% Calm Calm -- 29.86 in1011.2 mb 0.00 in0.0 mm 0.00 in0.0 mm 0.00 in0.0 mm
07:52 PM 59.0°F15.0°C 56.1°F13.4°C 90% 0.2 mph SSW0.3 kmh SSW 1.3 mph2.1 kmh 29.87 in1011.5 mb 0.00 in0.0 mm 0.00 in0.0 mm 0.00 in0.0 mm
07:57 PM 59.1°F15.1°C 56.5°F13.6°C 91% Calm Calm -- 29.86 in1011.2 mb 0.00 in0.0 mm 0.00 in0.0 mm 0.00 in0.0 mm
08:02 PM 59.7°F15.4°C 56.8°F13.8°C 90% Calm Calm -- 29.86 in1011.2 mb 0.00 in0.0 mm 0.00 in0.0 mm 0.00 in0.0 mm
08:07 PM 60.1°F15.6°C 56.8°F13.8°C 89% 0.9 mph SSW1.4 kmh SSW 1.3 mph2.1 kmh 29.87 in1011.5 mb 0.00 in0.0 mm 0.00 in0.0 mm 0.00 in0.0 mm
08:12 PM 60.3°F15.7°C 57.0°F13.9°C 89% 1.6 mph SSW2.6 kmh SSW 2.1 mph3.4 kmh 29.86 in1011.2 mb 0.00 in0.0 mm 0.00 in0.0 mm 0.00 in0.0 mm
08:17 PM 60.7°F15.9°C 57.1°F13.9°C 88% 0.8 mph SSW1.3 kmh SSW 1.6 mph2.6 kmh 29.87 in1011.5 mb 0.00 in0.0 mm 0.00 in0.0 mm 0.00 in0.0 mm
08:22 PM 61.2°F16.2°C 57.0°F13.9°C 86% Calm Calm -- 29.86 in1011.2 mb 0.00 in0.0 mm 0.00 in0.0 mm 0.00 in0.0 mm
08:27 PM 61.4°F16.3°C 57.2°F14.0°C 86% Calm Calm -- 29.86 in1011.2 mb 0.00 in0.0 mm 0.00 in0.0 mm 0.00 in0.0 mm
08:32 PM 61.2°F16.2°C 56.7°F13.7°C 85% 0.4 mph WSW0.6 kmh WSW 1.3 mph2.1 kmh 29.86 in1011.2 mb 0.00 in0.0 mm 0.00 in0.0 mm 0.00 in0.0 mm
08:37 PM 60.9°F16.1°C 57.0°F13.9°C 87% 0.7 mph SW1.1 kmh SW 1.8 mph2.9 kmh 29.86 in1011.2 mb 0.00 in0.0 mm 0.00 in0.0 mm 0.00 in0.0 mm
08:42 PM 61.0°F16.1°C 56.8°F13.8°C 86% 1.7 mph SW2.7 kmh SW 2.2 mph3.5 kmh 29.86 in1011.2 mb 0.00 in0.0 mm 0.00 in0.0 mm 0.00 in0.0 mm
08:47 PM 61.3°F16.3°C 56.7°F13.7°C 85% Calm Calm -- 29.86 in1011.2 mb 0.00 in0.0 mm 0.00 in0.0 mm 0.00 in0.0 mm
08:52 PM 61.5°F16.4°C 56.9°F13.8°C 85% Calm Calm -- 29.86 in1011.2 mb 0.00 in0.0 mm 0.00 in0.0 mm 0.00 in0.0 mm
08:57 PM 61.1°F16.2°C 56.6°F13.7°C 85% Calm Calm -- 29.86 in1011.2 mb 0.00 in0.0 mm 0.00 in0.0 mm 0.00 in0.0 mm
09:02 PM 60.5°F15.8°C 56.0°F13.3°C 85% Calm Calm -- 29.86 in1011.2 mb 0.00 in0.0 mm 0.00 in0.0 mm 0.00 in0.0 mm
09:07 PM 60.0°F15.6°C 55.8°F13.2°C 86% Calm Calm -- 29.86 in1011.2 mb 0.00 in0.0 mm 0.00 in0.0 mm 0.00 in0.0 mm
09:12 PM 59.5°F15.3°C 55.6°F13.1°C 87% 1.9 mph SW3.1 kmh SW 2.7 mph4.3 kmh 29.86 in1011.2 mb 0.00 in0.0 mm 0.00 in0.0 mm 0.00 in0.0 mm
09:17 PM 59.6°F15.3°C 55.7°F13.2°C 87% 1.5 mph WSW2.4 kmh WSW 3.0 mph4.8 kmh 29.86 in1011.2 mb 0.00 in0.0 mm 0.00 in0.0 mm 0.00 in0.0 mm
09:22 PM 60.6°F15.9°C 56.7°F13.7°C 87% 2.1 mph WSW3.4 kmh WSW 3.5 mph5.6 kmh 29.86 in1011.2 mb 0.00 in0.0 mm 0.00 in0.0 mm 0.00 in0.0 mm
09:27 PM 61.4°F16.3°C 56.8°F13.8°C 85% 2.1 mph SW3.4 kmh SW 3.2 mph5.1 kmh 29.86 in1011.2 mb 0.00 in0.0 mm 0.00 in0.0 mm 0.00 in0.0 mm
09:32 PM 61.7°F16.5°C 56.8°F13.8°C 84% 0.9 mph WSW1.4 kmh WSW 1.8 mph2.9 kmh 29.86 in1011.2 mb 0.00 in0.0 mm 0.00 in0.0 mm 0.00 in0.0 mm
09:37 PM 61.7°F16.5°C 56.5°F13.6°C 83% 1.7 mph SSW2.7 kmh SSW 3.0 mph4.8 kmh 29.86 in1011.2 mb 0.00 in0.0 mm 0.00 in0.0 mm 0.00 in0.0 mm
09:42 PM 61.7°F16.5°C 56.5°F13.6°C 83% 1.6 mph SW2.6 kmh SW 2.2 mph3.5 kmh 29.86 in1011.2 mb 0.00 in0.0 mm 0.00 in0.0 mm 0.00 in0.0 mm
09:47 PM 61.6°F16.4°C 56.4°F13.6°C 83% 1.9 mph SW3.1 kmh SW 3.7 mph6.0 kmh 29.86 in1011.2 mb 0.00 in0.0 mm 0.00 in0.0 mm 0.00 in0.0 mm
09:52 PM 61.2°F16.2°C 56.3°F13.5°C 84% Calm Calm -- 29.86 in1011.2 mb 0.00 in0.0 mm 0.00 in0.0 mm 0.00 in0.0 mm
09:57 PM 60.9°F16.1°C 55.7°F13.2°C 83% Calm Calm -- 29.86 in1011.2 mb 0.00 in0.0 mm 0.00 in0.0 mm 0.00 in0.0 mm
10:02 PM 60.5°F15.8°C 55.6°F13.1°C 84% 1.2 mph SSW1.9 kmh SSW 1.6 mph2.6 kmh 29.86 in1011.2 mb 0.00 in0.0 mm 0.00 in0.0 mm 0.00 in0.0 mm
10:07 PM 60.1°F15.6°C 55.2°F12.9°C 84% 2.0 mph SSW3.2 kmh SSW 2.6 mph4.2 kmh 29.86 in1011.2 mb 0.00 in0.0 mm 0.00 in0.0 mm 0.00 in0.0 mm
10:12 PM 59.9°F15.5°C 55.4°F13.0°C 85% 3.0 mph SSW4.8 kmh SSW 3.7 mph6.0 kmh 29.86 in1011.2 mb 0.00 in0.0 mm 0.00 in0.0 mm 0.00 in0.0 mm
10:17 PM 59.9°F15.5°C 55.4°F13.0°C 85% 2.4 mph SW3.9 kmh SW 3.2 mph5.1 kmh 29.86 in1011.2 mb 0.00 in0.0 mm 0.00 in0.0 mm 0.00 in0.0 mm
10:22 PM 60.1°F15.6°C 55.6°F13.1°C 85% 2.4 mph SW3.9 kmh SW 3.5 mph5.6 kmh 29.86 in1011.2 mb 0.00 in0.0 mm 0.00 in0.0 mm 0.00 in0.0 mm
10:27 PM 60.3°F15.7°C 55.8°F13.2°C 85% 2.5 mph SW4.0 kmh SW 3.2 mph5.1 kmh 29.86 in1011.2 mb 0.00 in0.0 mm 0.00 in0.0 mm 0.00 in0.0 mm
10:32 PM 60.5°F15.8°C 55.6°F13.1°C 84% 2.4 mph SSW3.9 kmh SSW 3.2 mph5.1 kmh 29.86 in1011.2 mb 0.00 in0.0 mm 0.00 in0.0 mm 0.00 in0.0 mm
10:37 PM 60.5°F15.8°C 55.3°F12.9°C 83% 2.1 mph SSW3.4 kmh SSW 2.7 mph4.3 kmh 29.86 in1011.2 mb 0.00 in0.0 mm 0.00 in0.0 mm 0.00 in0.0 mm
10:42 PM 60.2°F15.7°C 55.3°F12.9°C 84% 1.2 mph SSW1.9 kmh SSW 1.8 mph2.9 kmh 29.86 in1011.2 mb 0.00 in0.0 mm 0.00 in0.0 mm 0.00 in0.0 mm
10:46 PM 60.1°F15.6°C 55.6°F13.1°C 85% 1.2 mph SSW1.9 kmh SSW 2.2 mph3.5 kmh 29.86 in1011.2 mb 0.00 in0.0 mm 0.00 in0.0 mm 0.00 in0.0 mm
10:51 PM 59.9°F15.5°C 55.4°F13.0°C 85% 1.7 mph SSW2.7 kmh SSW 2.1 mph3.4 kmh 29.86 in1011.2 mb 0.00 in0.0 mm 0.00 in0.0 mm 0.00 in0.0 mm
11:01 PM 59.4°F15.2°C 54.9°F12.7°C 85% 2.1 mph SSW3.4 kmh SSW 2.6 mph4.2 kmh 29.86 in1011.2 mb 0.00 in0.0 mm 0.00 in0.0 mm 0.00 in0.0 mm
11:06 PM 59.2°F15.1°C 54.7°F12.6°C 85% 2.3 mph SSW3.7 kmh SSW 3.0 mph4.8 kmh 29.86 in1011.2 mb 0.00 in0.0 mm 0.00 in0.0 mm 0.00 in0.0 mm
11:11 PM 59.1°F15.1°C 54.9°F12.7°C 86% 1.4 mph SSW2.3 kmh SSW 1.8 mph2.9 kmh 29.86 in1011.2 mb 0.00 in0.0 mm 0.00 in0.0 mm 0.00 in0.0 mm
11:16 PM 59.0°F15.0°C 54.8°F12.7°C 86% Calm Calm -- 29.86 in1011.2 mb 0.00 in0.0 mm 0.00 in0.0 mm 0.00 in0.0 mm
11:21 PM 58.7°F14.8°C 54.5°F12.5°C 86% Calm Calm -- 29.86 in1011.2 mb 0.00 in0.0 mm 0.00 in0.0 mm 0.00 in0.0 mm
11:26 PM 58.3°F14.6°C 54.4°F12.4°C 87% Calm Calm -- 29.86 in1011.2 mb 0.00 in0.0 mm 0.00 in0.0 mm 0.00 in0.0 mm
11:31 PM 57.8°F14.3°C 54.3°F12.4°C 88% Calm Calm -- 29.86 in1011.2 mb 0.00 in0.0 mm 0.00 in0.0 mm 0.00 in0.0 mm
11:36 PM 57.3°F14.1°C 53.8°F12.1°C 88% Calm Calm -- 29.86 in1011.2 mb 0.00 in0.0 mm 0.00 in0.0 mm 0.00 in0.0 mm
11:41 PM 56.7°F13.7°C 53.5°F11.9°C 89% Calm Calm -- 29.86 in1011.2 mb 0.00 in0.0 mm 0.00 in0.0 mm 0.00 in0.0 mm
11:46 PM 56.4°F13.6°C 53.5°F11.9°C 90% Calm Calm -- 29.87 in1011.5 mb 0.00 in0.0 mm 0.00 in0.0 mm 0.00 in0.0 mm
11:51 PM 56.2°F13.4°C 53.6°F12.0°C 91% Calm Calm -- 29.86 in1011.2 mb 0.00 in0.0 mm 0.00 in0.0 mm 0.00 in0.0 mm
11:56 PM 55.9°F13.3°C 53.6°F12.0°C 92% Calm Calm -- 29.86 in1011.2 mb 0.00 in0.0 mm 0.00 in0.0 mm 0.00 in0.0 mm